Time;durP1;ratioP1;P1;durP2;ratioP2;P2;SDS_P1;SDS_P2;PMS_P1;PMS_P2;Temp;Humidity;BMP_temperature;BMP_pressure;BME280_temperature;BME280_humidity;BME280_pressure;Samples;Min_cycle;Max_cycle;Signal;HPM_P1;HPM_P2
2021/10/04 00:00:26;;;;;;;943.35;824.65;;;;;;;;;;5003576;28;20067;-83
2021/10/04 00:02:52;;;;;;;943.15;825.22;;;;;;;;;;5003686;28;20389;-83
2021/10/04 00:05:18;;;;;;;943.03;823.13;;;;;;;;;;5005028;28;20128;-83
2021/10/04 00:07:45;;;;;;;937.78;816.75;;;;;;;;;;5001403;28;20041;-81
2021/10/04 00:10:14;;;;;;;936.85;815.08;;;;;;;;;;5005329;28;20022;-83
2021/10/04 00:12:40;;;;;;;937.92;812.00;;;;;;;;;;5004106;28;20026;-82
2021/10/04 00:15:07;;;;;;;938.92;819.00;;;;;;;;;;5005375;28;20033;-81
2021/10/04 00:17:33;;;;;;;943.42;823.38;;;;;;;;;;5002095;28;20314;-82
2021/10/04 00:19:59;;;;;;;949.15;832.38;;;;;;;;;;5004422;28;20033;-81
2021/10/04 00:22:25;;;;;;;944.45;825.50;;;;;;;;;;5020994;28;20441;-81
2021/10/04 00:24:51;;;;;;;938.28;814.88;;;;;;;;;;5005279;28;20073;-82
2021/10/04 00:27:17;;;;;;;936.63;816.13;;;;;;;;;;5003750;28;20060;-82
2021/10/04 00:29:43;;;;;;;936.33;811.65;;;;;;;;;;5001267;28;20073;-82
2021/10/04 00:32:09;;;;;;;941.97;822.20;;;;;;;;;;5003064;28;20022;-83
2021/10/04 00:34:35;;;;;;;951.03;833.28;;;;;;;;;;5003358;28;20026;-83
2021/10/04 00:37:01;;;;;;;941.45;820.40;;;;;;;;;;4999566;28;20033;-82
2021/10/04 00:39:27;;;;;;;948.38;831.83;;;;;;;;;;5003565;28;20128;-82
2021/10/04 00:41:53;;;;;;;944.00;821.85;;;;;;;;;;5003113;28;20389;-82
2021/10/04 00:44:19;;;;;;;944.75;825.20;;;;;;;;;;5001949;28;20045;-82
2021/10/04 00:46:45;;;;;;;936.17;820.70;;;;;;;;;;5000983;28;20061;-83
2021/10/04 00:49:11;;;;;;;942.92;824.85;;;;;;;;;;5011878;28;20075;-83
2021/10/04 00:51:39;;;;;;;945.13;822.78;;;;;;;;;;5000897;28;20124;-83
2021/10/04 00:54:05;;;;;;;936.22;817.10;;;;;;;;;;5001715;28;20030;-82
2021/10/04 00:56:32;;;;;;;940.38;826.47;;;;;;;;;;5002984;28;20018;-83
2021/10/04 00:58:57;;;;;;;932.95;808.55;;;;;;;;;;5003615;28;20052;-82
2021/10/04 01:01:28;;;;;;;935.78;812.75;;;;;;;;;;5004059;28;20037;-82
2021/10/04 01:03:54;;;;;;;934.03;812.53;;;;;;;;;;5003414;28;20041;-82
2021/10/04 01:06:22;;;;;;;933.75;815.13;;;;;;;;;;4998017;28;20045;-81
2021/10/04 01:08:47;;;;;;;933.88;816.35;;;;;;;;;;5012006;28;20556;-82
2021/10/04 01:11:14;;;;;;;934.92;814.03;;;;;;;;;;4999848;28;20030;-82
2021/10/04 01:13:40;;;;;;;934.92;816.25;;;;;;;;;;5002228;28;20026;-81
2021/10/04 01:16:06;;;;;;;937.45;818.25;;;;;;;;;;5004345;28;20026;-82
2021/10/04 01:18:32;;;;;;;931.15;813.10;;;;;;;;;;5003100;28;20054;-82
2021/10/04 01:20:58;;;;;;;935.15;817.47;;;;;;;;;;5003826;28;20038;-82
2021/10/04 01:23:28;;;;;;;936.88;813.80;;;;;;;;;;5003381;28;20148;-82
2021/10/04 01:25:54;;;;;;;933.67;811.08;;;;;;;;;;5003792;28;20168;-83
2021/10/04 01:28:20;;;;;;;932.00;807.78;;;;;;;;;;5000718;28;20442;-84
2021/10/04 01:30:45;;;;;;;932.80;803.00;;;;;;;;;;5000028;28;20062;-82
2021/10/04 01:33:11;;;;;;;936.42;807.55;;;;;;;;;;5000111;28;20486;-82
2021/10/04 01:35:37;;;;;;;933.20;807.05;;;;;;;;;;5004051;28;20457;-81
2021/10/04 01:38:04;;;;;;;936.78;811.50;;;;;;;;;;4999519;28;20581;-83
2021/10/04 01:40:30;;;;;;;933.40;802.55;;;;;;;;;;5004358;28;20422;-82
2021/10/04 01:42:56;;;;;;;935.17;807.83;;;;;;;;;;5003195;28;20128;-83
2021/10/04 01:45:23;;;;;;;947.10;826.15;;;;;;;;;;5005523;28;20041;-83
2021/10/04 01:47:49;;;;;;;939.60;808.78;;;;;;;;;;5006509;28;20176;-82
2021/10/04 01:50:16;;;;;;;939.15;807.80;;;;;;;;;;5001903;28;20504;-82
2021/10/04 01:52:42;;;;;;;943.13;810.92;;;;;;;;;;5002063;28;20040;-82
2021/10/04 01:55:09;;;;;;;941.33;811.17;;;;;;;;;;4998794;28;20041;-83
2021/10/04 01:57:35;;;;;;;940.95;812.03;;;;;;;;;;5002256;28;20387;-82
2021/10/04 02:00:02;;;;;;;943.78;810.30;;;;;;;;;;5002853;28;20056;-83
2021/10/04 02:02:31;;;;;;;944.13;811.15;;;;;;;;;;5001464;28;20393;-81
2021/10/04 02:04:58;;;;;;;941.60;811.42;;;;;;;;;;5003175;28;20389;-83
2021/10/04 02:07:24;;;;;;;940.25;810.95;;;;;;;;;;5000651;28;20116;-82
2021/10/04 02:09:50;;;;;;;940.00;808.33;;;;;;;;;;5001801;28;20125;-82
2021/10/04 02:12:17;;;;;;;937.88;802.88;;;;;;;;;;4999785;28;20037;-82
2021/10/04 02:14:43;;;;;;;942.08;805.75;;;;;;;;;;5002608;28;20549;-81
2021/10/04 02:17:09;;;;;;;939.60;802.90;;;;;;;;;;5001825;28;20501;-81
2021/10/04 02:19:35;;;;;;;939.78;810.22;;;;;;;;;;5002486;28;20029;-82
2021/10/04 02:22:03;;;;;;;943.88;806.92;;;;;;;;;;5002064;28;20087;-82
2021/10/04 02:24:29;;;;;;;939.38;803.88;;;;;;;;;;5002437;28;20734;-82
2021/10/04 02:26:55;;;;;;;938.80;806.58;;;;;;;;;;5002797;28;20398;-80
2021/10/04 02:29:21;;;;;;;938.20;803.65;;;;;;;;;;5003168;28;20041;-81
2021/10/04 02:31:49;;;;;;;939.22;805.67;;;;;;;;;;4999309;28;20038;-81
2021/10/04 02:34:15;;;;;;;942.97;805.90;;;;;;;;;;5001948;28;20746;-80
2021/10/04 02:36:41;;;;;;;938.88;799.22;;;;;;;;;;4999068;28;20113;-81
2021/10/04 02:39:07;;;;;;;940.42;800.45;;;;;;;;;;5004759;28;20386;-81
2021/10/04 02:41:33;;;;;;;944.75;811.92;;;;;;;;;;5008803;28;20030;-82
2021/10/04 02:43:59;;;;;;;939.67;799.83;;;;;;;;;;5005835;28;20034;-81
2021/10/04 02:46:25;;;;;;;940.25;801.17;;;;;;;;;;5005477;28;20068;-81
2021/10/04 02:48:51;;;;;;;941.70;803.63;;;;;;;;;;5007816;28;20033;-81
2021/10/04 02:51:17;;;;;;;937.03;795.70;;;;;;;;;;5005974;28;20375;-82
2021/10/04 02:53:43;;;;;;;934.60;799.92;;;;;;;;;;5001423;28;20311;-83
2021/10/04 02:56:09;;;;;;;937.58;798.75;;;;;;;;;;5002457;28;20432;-82
2021/10/04 02:58:35;;;;;;;941.13;804.58;;;;;;;;;;5036898;28;20033;-81
2021/10/04 03:01:01;;;;;;;940.63;811.88;;;;;;;;;;5004834;28;20475;-82
2021/10/04 03:03:27;;;;;;;934.13;795.30;;;;;;;;;;5037684;28;20397;-81
2021/10/04 03:05:54;;;;;;;942.85;814.42;;;;;;;;;;5004386;28;20550;-82
2021/10/04 03:08:21;;;;;;;943.78;811.60;;;;;;;;;;5005103;28;20062;-82
2021/10/04 03:10:47;;;;;;;932.88;797.17;;;;;;;;;;5000387;28;20034;-81
2021/10/04 03:13:13;;;;;;;933.55;796.17;;;;;;;;;;5006150;28;20018;-82
2021/10/04 03:15:39;;;;;;;933.22;790.00;;;;;;;;;;5005640;28;20057;-82
2021/10/04 03:18:05;;;;;;;930.78;786.17;;;;;;;;;;5006704;28;20050;-83
2021/10/04 03:20:31;;;;;;;932.85;790.45;;;;;;;;;;5003414;28;20041;-82
2021/10/04 03:22:58;;;;;;;935.40;798.88;;;;;;;;;;5003925;28;20139;-82
2021/10/04 03:25:24;;;;;;;935.05;801.03;;;;;;;;;;5006149;28;20029;-82
2021/10/04 03:27:50;;;;;;;933.60;792.85;;;;;;;;;;5008887;28;20121;-83
2021/10/04 03:30:16;;;;;;;930.38;790.85;;;;;;;;;;5003254;28;20077;-82
2021/10/04 03:32:43;;;;;;;932.05;793.28;;;;;;;;;;5001765;28;20093;-82
2021/10/04 03:35:09;;;;;;;929.58;793.17;;;;;;;;;;5002576;28;20049;-82
2021/10/04 03:37:36;;;;;;;932.17;792.13;;;;;;;;;;5002477;28;20034;-83
2021/10/04 03:40:03;;;;;;;930.13;796.90;;;;;;;;;;5004062;28;20044;-82
2021/10/04 03:42:29;;;;;;;927.25;787.20;;;;;;;;;;5005709;28;20107;-82
2021/10/04 03:44:54;;;;;;;926.78;784.00;;;;;;;;;;5005261;28;20160;-82
2021/10/04 03:47:20;;;;;;;927.97;786.22;;;;;;;;;;5004817;28;20053;-81
2021/10/04 03:49:46;;;;;;;929.00;786.28;;;;;;;;;;5003979;28;20228;-81
2021/10/04 03:52:12;;;;;;;928.55;785.58;;;;;;;;;;5001839;28;20679;-82
2021/10/04 03:54:38;;;;;;;924.97;781.25;;;;;;;;;;5004109;28;20037;-83
2021/10/04 03:57:05;;;;;;;926.13;782.58;;;;;;;;;;5003751;28;20607;-81
2021/10/04 03:59:31;;;;;;;926.53;786.45;;;;;;;;;;5004697;28;20109;-82
2021/10/04 04:01:57;;;;;;;929.47;792.80;;;;;;;;;;5004722;28;20065;-82
2021/10/04 04:04:23;;;;;;;926.38;787.75;;;;;;;;;;5003370;28;20030;-82
2021/10/04 04:06:49;;;;;;;926.95;790.33;;;;;;;;;;5002059;28;20436;-82
2021/10/04 04:09:15;;;;;;;927.88;785.38;;;;;;;;;;5002948;28;21378;-82
2021/10/04 04:11:43;;;;;;;927.20;791.35;;;;;;;;;;5003626;28;20398;-83
2021/10/04 04:14:09;;;;;;;928.92;787.53;;;;;;;;;;5006913;28;20037;-82
2021/10/04 04:16:35;;;;;;;929.85;787.17;;;;;;;;;;5003117;28;20384;-82
2021/10/04 04:19:01;;;;;;;929.20;789.55;;;;;;;;;;5003677;28;20029;-82
2021/10/04 04:21:27;;;;;;;928.33;789.70;;;;;;;;;;5000922;28;20048;-83
2021/10/04 04:23:53;;;;;;;927.47;787.72;;;;;;;;;;5002673;28;20121;-82
2021/10/04 04:26:19;;;;;;;927.17;792.63;;;;;;;;;;4999633;28;20064;-81
2021/10/04 04:28:44;;;;;;;928.28;787.60;;;;;;;;;;5003768;28;20046;-82
2021/10/04 04:31:10;;;;;;;928.47;787.72;;;;;;;;;;5002372;28;20120;-83
2021/10/04 04:33:36;;;;;;;929.83;787.83;;;;;;;;;;5004681;28;20026;-83
2021/10/04 04:36:02;;;;;;;926.33;786.53;;;;;;;;;;4997925;28;20021;-81
2021/10/04 04:38:28;;;;;;;927.33;789.95;;;;;;;;;;5003301;28;20044;-82
2021/10/04 04:40:54;;;;;;;929.40;793.65;;;;;;;;;;5001743;28;20029;-82
2021/10/04 04:43:20;;;;;;;930.67;798.65;;;;;;;;;;5002951;28;20064;-81
2021/10/04 04:45:46;;;;;;;929.03;787.55;;;;;;;;;;5003221;28;20037;-81
2021/10/04 04:48:12;;;;;;;926.70;785.47;;;;;;;;;;5002428;28;20104;-83
2021/10/04 04:50:38;;;;;;;927.47;788.75;;;;;;;;;;5006565;28;20034;-82
2021/10/04 04:53:05;;;;;;;930.92;796.42;;;;;;;;;;4999842;28;20112;-81
2021/10/04 04:55:30;;;;;;;929.05;793.92;;;;;;;;;;5003121;28;20097;-81
2021/10/04 04:57:56;;;;;;;932.85;797.67;;;;;;;;;;5003098;28;20577;-82
2021/10/04 05:00:22;;;;;;;936.55;804.45;;;;;;;;;;4995100;28;20145;-84
2021/10/04 05:02:48;;;;;;;932.03;796.38;;;;;;;;;;5003703;28;20789;-81
2021/10/04 05:05:16;;;;;;;929.78;794.65;;;;;;;;;;5003849;28;20108;-81
2021/10/04 05:07:42;;;;;;;927.60;796.00;;;;;;;;;;5002621;28;20040;-81
2021/10/04 05:10:08;;;;;;;928.97;793.50;;;;;;;;;;4997226;28;20033;-81
2021/10/04 05:12:34;;;;;;;929.05;792.40;;;;;;;;;;5017673;28;20046;-81
2021/10/04 05:15:00;;;;;;;930.25;797.17;;;;;;;;;;5016678;28;20034;-80
2021/10/04 05:17:26;;;;;;;927.10;782.80;;;;;;;;;;4999096;28;20390;-81
2021/10/04 05:19:52;;;;;;;929.35;799.80;;;;;;;;;;5004692;28;20057;-81
2021/10/04 05:22:18;;;;;;;928.22;796.80;;;;;;;;;;5004288;28;20049;-81
2021/10/04 05:24:44;;;;;;;924.92;790.33;;;;;;;;;;5001743;28;20034;-80
2021/10/04 05:27:10;;;;;;;927.58;788.95;;;;;;;;;;5003630;28;20048;-81
2021/10/04 05:29:38;;;;;;;928.97;791.42;;;;;;;;;;5019976;28;20025;-80
2021/10/04 05:32:04;;;;;;;928.03;796.30;;;;;;;;;;5004049;28;20548;-82
2021/10/04 05:34:30;;;;;;;931.15;795.60;;;;;;;;;;5002451;28;20116;-81
2021/10/04 05:36:56;;;;;;;928.80;791.75;;;;;;;;;;4998318;28;20577;-81
2021/10/04 05:39:22;;;;;;;931.03;796.30;;;;;;;;;;5015378;28;20038;-80
2021/10/04 05:41:49;;;;;;;928.92;791.33;;;;;;;;;;5003616;28;20482;-81
2021/10/04 05:44:15;;;;;;;928.33;787.92;;;;;;;;;;5000875;28;20053;-81
2021/10/04 05:46:41;;;;;;;933.83;802.20;;;;;;;;;;5003720;28;20030;-80
2021/10/04 05:49:07;;;;;;;935.30;808.83;;;;;;;;;;4996988;28;20026;-80
2021/10/04 05:51:33;;;;;;;937.67;800.00;;;;;;;;;;4997600;28;20037;-81
2021/10/04 05:53:59;;;;;;;932.20;791.78;;;;;;;;;;5000701;28;20068;-80
2021/10/04 05:56:25;;;;;;;934.70;795.40;;;;;;;;;;5002958;28;20034;-81
2021/10/04 05:58:51;;;;;;;934.00;797.00;;;;;;;;;;5001229;28;20049;-82
2021/10/04 06:01:17;;;;;;;938.70;808.30;;;;;;;;;;5002970;28;20030;-81
2021/10/04 06:03:43;;;;;;;937.30;799.05;;;;;;;;;;5005533;28;20168;-80
2021/10/04 06:06:09;;;;;;;935.20;799.47;;;;;;;;;;5001832;28;20031;-80
2021/10/04 06:08:35;;;;;;;934.33;794.38;;;;;;;;;;5019806;28;20030;-81
2021/10/04 06:11:01;;;;;;;938.22;799.13;;;;;;;;;;5005122;28;20429;-81
2021/10/04 06:13:27;;;;;;;947.15;810.75;;;;;;;;;;5008181;28;20141;-83
2021/10/04 06:15:52;;;;;;;943.67;809.45;;;;;;;;;;5011173;28;20025;-80
2021/10/04 06:18:18;;;;;;;944.25;813.67;;;;;;;;;;5008657;28;20133;-81
2021/10/04 06:20:45;;;;;;;944.58;808.03;;;;;;;;;;5009191;28;20053;-81
2021/10/04 06:23:11;;;;;;;948.67;816.08;;;;;;;;;;5008645;28;20026;-82
2021/10/04 06:25:37;;;;;;;937.13;800.22;;;;;;;;;;5009314;28;20081;-81
2021/10/04 06:28:03;;;;;;;943.40;810.70;;;;;;;;;;5008582;28;20053;-82
2021/10/04 06:30:29;;;;;;;944.42;812.97;;;;;;;;;;5008554;28;20037;-82
2021/10/04 06:32:55;;;;;;;941.58;808.90;;;;;;;;;;5014742;28;20026;-81
2021/10/04 06:35:24;;;;;;;949.45;820.63;;;;;;;;;;5008586;28;20113;-83
2021/10/04 06:37:50;;;;;;;950.63;805.75;;;;;;;;;;5007293;28;20092;-81
2021/10/04 06:40:17;;;;;;;944.10;811.75;;;;;;;;;;5008637;28;20168;-80
2021/10/04 06:42:44;;;;;;;943.30;805.05;;;;;;;;;;5009071;28;20030;-81
2021/10/04 06:45:10;;;;;;;944.65;813.45;;;;;;;;;;5008044;28;20022;-81
2021/10/04 06:47:36;;;;;;;947.75;812.80;;;;;;;;;;5008285;28;20038;-81
2021/10/04 06:50:03;;;;;;;946.20;812.95;;;;;;;;;;5010435;28;20036;-82
2021/10/04 06:52:29;;;;;;;945.83;818.72;;;;;;;;;;5008247;28;20109;-81
2021/10/04 06:54:56;;;;;;;942.50;809.13;;;;;;;;;;5009563;28;20597;-82
2021/10/04 06:57:22;;;;;;;940.83;811.25;;;;;;;;;;5008350;28;20033;-81
2021/10/04 06:59:48;;;;;;;944.65;811.60;;;;;;;;;;5007818;28;21663;-82
2021/10/04 07:02:14;;;;;;;944.22;808.30;;;;;;;;;;5008118;28;20026;-81
2021/10/04 07:04:40;;;;;;;946.60;815.92;;;;;;;;;;5008120;28;20096;-81
2021/10/04 07:07:06;;;;;;;937.42;806.08;;;;;;;;;;5014449;28;20394;-81
2021/10/04 07:09:35;;;;;;;936.72;807.80;;;;;;;;;;5007855;28;20068;-81
2021/10/04 07:12:01;;;;;;;934.95;805.42;;;;;;;;;;5009243;28;20474;-81
2021/10/04 07:14:27;;;;;;;942.35;811.90;;;;;;;;;;5009266;28;20088;-81
2021/10/04 07:16:53;;;;;;;940.08;802.80;;;;;;;;;;5001168;28;20022;-81
2021/10/04 07:19:19;;;;;;;939.67;797.55;;;;;;;;;;5010383;28;20079;-81
2021/10/04 07:21:51;;;;;;;938.55;801.75;;;;;;;;;;5011130;28;20065;-80
2021/10/04 07:24:17;;;;;;;938.83;798.80;;;;;;;;;;5014086;28;20497;-81
2021/10/04 07:26:43;;;;;;;932.97;796.28;;;;;;;;;;5012686;28;20038;-81
2021/10/04 07:29:09;;;;;;;933.47;798.30;;;;;;;;;;5011842;28;20609;-81
2021/10/04 07:31:35;;;;;;;941.92;807.78;;;;;;;;;;5008557;28;20026;-81
2021/10/04 07:34:01;;;;;;;940.22;807.40;;;;;;;;;;5012032;28;20033;-81
2021/10/04 07:36:27;;;;;;;932.40;795.05;;;;;;;;;;5013459;28;20025;-80
2021/10/04 07:38:53;;;;;;;929.10;796.65;;;;;;;;;;5008987;28;20529;-81
2021/10/04 07:41:19;;;;;;;936.38;806.28;;;;;;;;;;5016266;28;20608;-82
2021/10/04 07:43:45;;;;;;;934.30;796.45;;;;;;;;;;5011333;28;20120;-82
2021/10/04 07:46:11;;;;;;;933.50;799.50;;;;;;;;;;5007307;28;20030;-82
2021/10/04 07:48:37;;;;;;;930.13;794.58;;;;;;;;;;5007312;28;20025;-81
2021/10/04 07:51:04;;;;;;;929.55;793.83;;;;;;;;;;5007260;28;20041;-81
2021/10/04 07:53:31;;;;;;;936.13;806.22;;;;;;;;;;5007696;28;20119;-81
2021/10/04 07:55:57;;;;;;;931.13;795.72;;;;;;;;;;5007411;28;20033;-82
2021/10/04 07:58:23;;;;;;;934.05;805.53;;;;;;;;;;5013218;28;20034;-81
2021/10/04 08:00:50;;;;;;;933.20;814.75;;;;;;;;;;5008713;28;20042;-80
2021/10/04 08:03:16;;;;;;;933.75;811.47;;;;;;;;;;5000580;28;20030;-80
2021/10/04 08:05:42;;;;;;;937.65;818.60;;;;;;;;;;5004432;28;20374;-80
2021/10/04 08:08:08;;;;;;;935.97;812.78;;;;;;;;;;5000629;28;20033;-80
2021/10/04 08:10:34;;;;;;;938.28;822.85;;;;;;;;;;5008693;28;20505;-81
2021/10/04 08:13:00;;;;;;;939.33;823.55;;;;;;;;;;5010185;28;20028;-80
2021/10/04 08:15:26;;;;;;;941.78;834.22;;;;;;;;;;5008550;28;20096;-81
2021/10/04 08:17:52;;;;;;;947.92;843.00;;;;;;;;;;5010766;28;20022;-80
2021/10/04 08:20:18;;;;;;;957.13;851.92;;;;;;;;;;5007809;28;20091;-80
2021/10/04 08:22:47;;;;;;;952.35;847.42;;;;;;;;;;5010134;28;20044;-78
2021/10/04 08:25:16;;;;;;;963.50;857.95;;;;;;;;;;5039223;28;20104;-80
2021/10/04 08:27:42;;;;;;;977.20;871.15;;;;;;;;;;5007586;28;20022;-80
2021/10/04 08:30:08;;;;;;;969.00;863.70;;;;;;;;;;5012042;28;20036;-80
2021/10/04 08:32:35;;;;;;;986.60;880.55;;;;;;;;;;5007181;28;20022;-81
2021/10/04 08:35:03;;;;;;;999.10;892.85;;;;;;;;;;5007020;28;20036;-80
2021/10/04 08:37:32;;;;;;;1012.53;905.70;;;;;;;;;;5003028;28;20435;-79
2021/10/04 08:39:59;;;;;;;1022.80;915.33;;;;;;;;;;5007409;28;20281;-79
2021/10/04 08:42:25;;;;;;;1026.32;917.88;;;;;;;;;;5010537;28;20044;-80
2021/10/04 08:44:52;;;;;;;1033.65;925.97;;;;;;;;;;5007757;28;20026;-81
2021/10/04 08:47:22;;;;;;;1040.07;931.83;;;;;;;;;;5007822;28;20100;-81
2021/10/04 08:49:48;;;;;;;1036.03;927.10;;;;;;;;;;5007174;28;20037;-81
2021/10/04 08:52:14;;;;;;;1034.30;926.72;;;;;;;;;;5006229;28;20080;-79
2021/10/04 08:54:44;;;;;;;1038.28;930.08;;;;;;;;;;5004417;28;20034;-79
2021/10/04 08:57:10;;;;;;;1043.07;934.97;;;;;;;;;;5005058;28;20018;-80
2021/10/04 08:59:36;;;;;;;1042.55;934.58;;;;;;;;;;5006666;28;20156;-79
2021/10/04 09:02:21;;;;;;;1041.25;933.28;;;;;;;;;;5006258;28;20481;-80
2021/10/04 09:05:07;;;;;;;1038.43;930.38;;;;;;;;;;5015862;28;20077;-80
2021/10/04 09:07:40;;;;;;;1042.93;934.55;;;;;;;;;;5005439;28;20398;-79
2021/10/04 09:10:06;;;;;;;1050.20;941.47;;;;;;;;;;5016465;28;20022;-80
2021/10/04 09:12:46;;;;;;;1046.18;937.90;;;;;;;;;;5007295;28;20018;-79
2021/10/04 09:15:38;;;;;;;1053.63;945.22;;;;;;;;;;5003151;28;20030;-82
2021/10/04 09:18:04;;;;;;;1037.40;929.28;;;;;;;;;;5003542;28;20120;-81
2021/10/04 09:20:51;;;;;;;1060.38;951.67;;;;;;;;;;5008267;28;20180;-79
2021/10/04 09:23:29;;;;;;;1058.68;950.00;;;;;;;;;;5006030;28;20061;-80
2021/10/04 09:25:55;;;;;;;1054.90;946.30;;;;;;;;;;5010881;28;20024;-80
2021/10/04 09:28:47;;;;;;;1065.95;956.75;;;;;;;;;;5005965;28;20402;-81
2021/10/04 09:31:22;;;;;;;1053.90;945.17;;;;;;;;;;5001714;28;20473;-80
2021/10/04 09:34:01;;;;;;;1045.00;936.85;;;;;;;;;;5007609;28;20061;-80
2021/10/04 09:36:28;;;;;;;1057.38;948.35;;;;;;;;;;5016024;28;20034;-80
2021/10/04 09:39:14;;;;;;;1064.72;955.58;;;;;;;;;;5010416;28;20064;-82
2021/10/04 09:41:55;;;;;;;1044.00;935.33;;;;;;;;;;5007336;28;20025;-79
2021/10/04 09:44:21;;;;;;;1055.90;946.90;;;;;;;;;;5004072;28;20317;-80
2021/10/04 09:46:47;;;;;;;1059.38;950.28;;;;;;;;;;5008125;28;20041;-81
2021/10/04 09:49:13;;;;;;;1064.38;955.35;;;;;;;;;;5008119;28;20022;-84
2021/10/04 09:51:51;;;;;;;1081.93;971.53;;;;;;;;;;5013255;28;20026;-78
2021/10/04 09:54:17;;;;;;;1081.13;970.78;;;;;;;;;;5006492;28;20513;-78
2021/10/04 09:56:45;;;;;;;1077.65;967.50;;;;;;;;;;5010731;28;20029;-84
2021/10/04 09:59:13;;;;;;;1068.40;958.90;;;;;;;;;;5008614;28;20037;-78
2021/10/04 10:01:39;;;;;;;1068.22;958.50;;;;;;;;;;5001346;28;20104;-81
2021/10/04 10:04:06;;;;;;;1080.07;969.97;;;;;;;;;;4997322;28;20030;-80
2021/10/04 10:06:38;;;;;;;1078.93;968.75;;;;;;;;;;4998108;28;20408;-78
2021/10/04 10:09:04;;;;;;;1070.97;961.47;;;;;;;;;;5002734;28;20034;-80
2021/10/04 10:11:32;;;;;;;1070.53;961.30;;;;;;;;;;5003230;28;20165;-80
2021/10/04 10:13:58;;;;;;;1087.35;977.55;;;;;;;;;;5002953;28;20029;-80
2021/10/04 10:16:30;;;;;;;1076.38;967.03;;;;;;;;;;5004685;28;20032;-82
2021/10/04 10:19:00;;;;;;;1075.35;965.80;;;;;;;;;;5004715;28;20462;-78
2021/10/04 10:21:27;;;;;;;1081.90;972.10;;;;;;;;;;5005594;28;20486;-80
2021/10/04 10:23:58;;;;;;;1084.95;975.15;;;;;;;;;;5006095;28;20367;-80
2021/10/04 10:26:24;;;;;;;1083.25;973.42;;;;;;;;;;5006262;28;20775;-82
2021/10/04 10:28:51;;;;;;;1090.28;980.10;;;;;;;;;;5005261;28;20026;-79
2021/10/04 10:31:17;;;;;;;1092.57;982.47;;;;;;;;;;5006182;28;20092;-80
2021/10/04 10:33:47;;;;;;;1093.38;983.50;;;;;;;;;;5008282;28;20026;-79
2021/10/04 10:36:14;;;;;;;1085.28;975.85;;;;;;;;;;5000755;28;20475;-80
2021/10/04 10:39:15;;;;;;;1080.78;971.70;;;;;;;;;;5002735;28;20030;-82
2021/10/04 10:41:41;;;;;;;1071.30;963.10;;;;;;;;;;4941410;28;20034;-83
2021/10/04 10:44:11;;;;;;;1086.35;977.40;;;;;;;;;;5004392;28;20026;-79
2021/10/04 10:46:54;;;;;;;1088.68;979.88;;;;;;;;;;5003599;28;20033;-81
2021/10/04 10:49:39;;;;;;;1086.53;977.85;;;;;;;;;;5003929;28;20037;-85
2021/10/04 10:52:19;;;;;;;1092.07;982.88;;;;;;;;;;5004682;28;20034;-79
2021/10/04 10:54:45;;;;;;;1086.13;977.20;;;;;;;;;;5008083;28;20120;-82
2021/10/04 10:57:11;;;;;;;1086.82;977.95;;;;;;;;;;5006828;28;20129;-83
2021/10/04 10:59:43;;;;;;;1081.13;972.67;;;;;;;;;;5007837;28;20425;-83
2021/10/04 11:02:29;;;;;;;1082.63;974.22;;;;;;;;;;5010379;28;20277;-80
2021/10/04 11:04:55;;;;;;;1082.43;973.88;;;;;;;;;;5011548;28;20259;-78
2021/10/04 11:07:39;;;;;;;1099.22;985.33;;;;;;;;;;5005213;28;20056;-80
2021/10/04 11:10:05;;;;;;;1086.13;977.55;;;;;;;;;;5038455;28;20457;-79
2021/10/04 11:12:51;;;;;;;1089.18;979.72;;;;;;;;;;5007246;28;20148;-82
2021/10/04 11:15:30;;;;;;;1082.97;974.42;;;;;;;;;;5007178;28;20032;-76
2021/10/04 11:17:55;;;;;;;1088.22;979.35;;;;;;;;;;5008089;28;20505;-82
2021/10/04 11:20:21;;;;;;;1078.88;970.83;;;;;;;;;;5007094;28;20030;-80
2021/10/04 11:22:47;;;;;;;1089.70;980.85;;;;;;;;;;5008642;28;20402;-84
2021/10/04 11:25:13;;;;;;;1090.75;981.47;;;;;;;;;;5006468;28;20033;-79
2021/10/04 11:27:49;;;;;;;1098.65;989.47;;;;;;;;;;5009180;28;20030;-78
2021/10/04 11:30:15;;;;;;;1094.00;984.72;;;;;;;;;;5006812;28;20038;-83
2021/10/04 11:32:43;;;;;;;1102.78;992.92;;;;;;;;;;5007373;28;20410;-81
2021/10/04 11:35:15;;;;;;;1104.90;994.75;;;;;;;;;;5005377;28;20026;-81
2021/10/04 11:37:41;;;;;;;1100.13;990.47;;;;;;;;;;5007548;28;20053;-83
2021/10/04 11:40:08;;;;;;;1102.05;992.58;;;;;;;;;;5007420;28;20057;-81
2021/10/04 11:42:34;;;;;;;1104.72;994.42;;;;;;;;;;5009236;28;20034;-80
2021/10/04 11:45:00;;;;;;;1105.55;995.03;;;;;;;;;;5007031;28;20512;-81
2021/10/04 11:47:27;;;;;;;1105.43;994.35;;;;;;;;;;5006774;28;20030;-83
2021/10/04 11:49:53;;;;;;;1106.15;995.15;;;;;;;;;;5006364;28;20033;-79
2021/10/04 11:52:21;;;;;;;1112.15;998.83;;;;;;;;;;5010569;28;20030;-79
2021/10/04 11:54:48;;;;;;;1109.60;997.05;;;;;;;;;;5009542;28;20080;-82
2021/10/04 11:57:14;;;;;;;1113.22;998.63;;;;;;;;;;5012803;28;20359;-82
2021/10/04 11:59:57;;;;;;;1108.45;996.65;;;;;;;;;;5009903;28;20096;-79
2021/10/04 12:02:25;;;;;;;1104.03;994.08;;;;;;;;;;5007290;28;20037;-82
2021/10/04 12:04:52;;;;;;;1107.20;996.00;;;;;;;;;;5009303;28;20026;-84
2021/10/04 12:07:21;;;;;;;1112.80;998.55;;;;;;;;;;5006566;28;20029;-79
2021/10/04 12:09:56;;;;;;;1125.38;999.90;;;;;;;;;;5012900;28;20022;-82
2021/10/04 12:12:31;;;;;;;1114.25;999.30;;;;;;;;;;5006050;28;20025;-82
2021/10/04 12:14:57;;;;;;;1113.70;999.28;;;;;;;;;;5007772;28;20096;-83
2021/10/04 12:17:23;;;;;;;1115.47;999.75;;;;;;;;;;5007653;28;20029;-79
2021/10/04 12:19:49;;;;;;;1121.57;999.90;;;;;;;;;;5009064;28;20049;-82
2021/10/04 12:22:28;;;;;;;1129.50;999.90;;;;;;;;;;5007215;28;20030;-84
2021/10/04 12:24:54;;;;;;;1119.25;999.90;;;;;;;;;;5004770;28;20101;-81
2021/10/04 12:27:21;;;;;;;1128.50;999.90;;;;;;;;;;5007031;28;20112;-80
2021/10/04 12:29:48;;;;;;;1118.45;999.90;;;;;;;;;;5007158;28;20045;-78
2021/10/04 12:32:22;;;;;;;1113.05;999.15;;;;;;;;;;5010927;28;20465;-84
2021/10/04 12:35:00;;;;;;;1123.60;999.90;;;;;;;;;;5006512;28;20121;-80
2021/10/04 12:37:27;;;;;;;1122.55;999.90;;;;;;;;;;5008448;28;20044;-81
2021/10/04 12:39:53;;;;;;;1120.43;999.90;;;;;;;;;;5010965;28;20045;-79
2021/10/04 12:42:20;;;;;;;1124.60;999.90;;;;;;;;;;5007819;28;20029;-78
2021/10/04 12:44:46;;;;;;;1134.63;999.90;;;;;;;;;;5006136;28;20030;-81
2021/10/04 12:47:13;;;;;;;1125.07;999.90;;;;;;;;;;5006716;28;20033;-78
2021/10/04 12:49:42;;;;;;;1129.65;999.90;;;;;;;;;;5007735;28;20161;-81
2021/10/04 12:52:20;;;;;;;1130.93;999.90;;;;;;;;;;4987425;28;20032;-77
2021/10/04 12:54:49;;;;;;;1122.20;999.90;;;;;;;;;;5006784;28;20497;-80
2021/10/04 12:57:22;;;;;;;1126.82;999.90;;;;;;;;;;5006423;28;20084;-78
2021/10/04 12:59:55;;;;;;;1134.97;999.90;;;;;;;;;;5005953;28;20066;-77
2021/10/04 13:02:25;;;;;;;1133.57;999.90;;;;;;;;;;5003556;28;20033;-83
2021/10/04 13:04:51;;;;;;;1145.85;999.90;;;;;;;;;;5041202;28;20449;-84
2021/10/04 13:07:17;;;;;;;1140.68;999.90;;;;;;;;;;5006685;28;20528;-86
2021/10/04 13:09:43;;;;;;;1138.65;999.90;;;;;;;;;;5007532;28;20470;-83
2021/10/04 13:12:10;;;;;;;1139.60;999.90;;;;;;;;;;5005183;28;20080;-86
2021/10/04 13:14:36;;;;;;;1138.40;999.90;;;;;;;;;;5003741;28;20030;-82
2021/10/04 13:17:02;;;;;;;1140.80;999.90;;;;;;;;;;5004717;28;20482;-87
2021/10/04 13:19:28;;;;;;;1135.93;999.90;;;;;;;;;;5011564;28;20116;-79
2021/10/04 13:21:54;;;;;;;1137.75;999.90;;;;;;;;;;5006060;28;20029;-83
2021/10/04 13:24:20;;;;;;;1138.10;999.90;;;;;;;;;;5006233;28;20029;-80
2021/10/04 13:26:47;;;;;;;1137.53;999.90;;;;;;;;;;5008250;28;20034;-85
2021/10/04 13:29:13;;;;;;;1147.95;999.90;;;;;;;;;;5015288;28;20092;-82
2021/10/04 13:31:39;;;;;;;1144.53;999.90;;;;;;;;;;4998020;28;20030;-79
2021/10/04 13:34:07;;;;;;;1153.55;999.90;;;;;;;;;;4999447;28;20373;-80
2021/10/04 13:36:33;;;;;;;1146.55;999.90;;;;;;;;;;5000269;28;20057;-84
2021/10/04 13:38:59;;;;;;;1152.10;999.90;;;;;;;;;;4997488;28;20101;-82
2021/10/04 13:41:25;;;;;;;1150.45;999.90;;;;;;;;;;4993726;28;20034;-81
2021/10/04 13:43:51;;;;;;;1149.32;999.90;;;;;;;;;;5002673;28;20038;-79
2021/10/04 13:46:18;;;;;;;1145.03;999.90;;;;;;;;;;4998450;28;20065;-80
2021/10/04 13:48:44;;;;;;;1151.30;999.90;;;;;;;;;;4998299;28;21245;-82
2021/10/04 13:51:10;;;;;;;1157.03;999.90;;;;;;;;;;4999154;28;20030;-79